Airfield :
LOGIN :

Register | Disclaimer

   EN    FR    IT 

 










Legend :    VFR   Marginal VFR   IFR   Intensive IFR   Very Intensive IFR
Visi :
Ceiling :
>= 8 km
>= 3000ft
5 to 8 km
1000 to 3000 ft
1500m to 5 km
500 to 1000 ft
800 to 1500m
200 to 500 ft
< 800m
< 200 ft
Symbols :   Thunderstorms  Fog  Heavy snow  Heavy precipitations  Wind > 20 kt
SIGMETs :     Misc.  Thunderstorms  Icing  Turbulence  Mountain Waves  Volcanic Ashes







- Airport Elevation : 778 ft
- IATA code : BRQ


LKTB - Brno-Turany

CURRENT METAR :
  • 220200Z 30011KT 9999 -RA FEW020 07/04 Q1022 NOSIG

EXPIRED METARs :
  • 220130Z 28006KT 250V320 9999 OVC020 07/04 Q1022 NOSIG
  • 220100Z 30007KT 9999 BKN020 OVC037 07/04 Q1022 NOSIG
  • 220030Z 28006KT 9999 OVC022 07/03 Q1022 NOSIG
  • 220000Z 27008KT 9999 SCT027 OVC033 07/03 Q1023 NOSIG
  • 212330Z 20004KT 160V230 9999 FEW032 SCT049 06/03 Q1023 NOSIG

TAF TAF LKTB
Valid from the 22 at 00:00 until the 23 at 06:00 UTC


212300Z 2200/2306 30010KT 9999 BKN025
TEMPO 2200/2212 4000 RA BKN013
BECMG 2206/2209 02012KT
TEMPO 2209/2218 03014G26KT
BECMG 2218/2220 02008KT CAVOK
No reported NOTAMs for that airfield.



MET'MAP, your aeronautical weather chart ! - Copyright ORBIFLY December 2007 - Disclaimer

ORBIFLY MET'MAP TEAM :

Programming & Development : Alexandra Zaïnal
Concept & Development : Baudouin d'Aumeries
Co-Development & Prog : Marc-Olivier Méhu
Technical & hardware support : Manuel Goepfert

Contact : metmap@orbifly.com




SOURCES & CREDITS :

   NOAA